AirNav   Bose ProFlight Series 2 Headset
 
 643 users online  

4PA9 Macungie Mack Heliport
Macungie, Pennsylvania, USA

GOING TO MACUNGIE?


FAA INFORMATION EFFECTIVE 02 JANUARY 2020

Location

FAA Identifier: 4PA9
Lat/Long: 40-30-00.3490N 075-33-58.6700W
40-30.005817N 075-33.977833W
40.5000969,-75.5662972
(estimated)
Elevation: 400 ft. / 122 m (estimated)
Variation: 11W (1985)
From city: 1 mile W of MACUNGIE, PA
Time zone: UTC -5 (UTC -4 during Daylight Saving Time)
Zip code: 18062

Heliport Operations

Heliport use: Private use. Permission required prior to landing
Activation date: 12/1975
Control tower: no
ARTCC: NEW YORK CENTER
FSS: WILLIAMSPORT FLIGHT SERVICE STATION
Attendance: CONTINUOUS
Wind indicator: yes
Segmented circle: no

Heliport Communications

WX AWOS-3 at XLL (6 nm NE): 127.875 (610-231-3111)
WX AWOS-3 at UKT (9 nm SE): 119.475 (215-538-7610)
WX ASOS at ABE (11 nm NE): 126.975 (610-266-3579)
WX AWOS-3 at CKZ (14 nm SE): 126.325 (215-257-7291)
WX ASOS at PTW (16 nm S): 119.425 (610-495-0823)
WX ASOS at RDG (20 nm W): 127.1 (610-372-9863)

Nearby radio navigation aids

VOR radial/distance  VOR name  Freq  Var
ETXr141/7.2EAST TEXAS VOR/DME110.2009W
FJCr210/14.5ALLENTOWN VORTAC117.5010W
PTWr008/16.7POTTSTOWN VORTAC116.5009W
ARDr306/33.6YARDLEY VOR/DME108.2010W
MXEr017/35.2MODENA VORTAC113.2009W
SBJr272/37.9SOLBERG VOR/DME112.9010W
BWZr253/38.3BROADWAY VOR/DME114.2011W

 
NDB name  Hdg/Dist  Freq  Var  ID
AMBLER342/25.927512WING .. -. --.

Heliport Services

Runway Information

Helipad H1

Dimensions: 72 x 72 ft. / 22 x 22 m
Surface: turf, in fair condition
Latitude: 40-30.005817N
Longitude: 075-33.977833W
Elevation: 400.0 ft.
Traffic pattern: leftleft
Markings: none, in fair condition

Heliport Ownership and Management from official FAA records

Ownership: Privately-owned
Owner: MACK TRUCKS INC.
MACK BLVD
ALLENTOWN, PA 18105
Phone 215-439-3761
Manager: WILLIAM J. GMITTER
MACK BLVD
ALLENTOWN, PA 18105
Phone 215-439-2499

Additional Remarks

FOR CD CTC ALLENTOWN APCH AT 800-728-6322.

Instrument Procedures

There are no published instrument procedures at 4PA9.

Some nearby airports with instrument procedures:

KXLL - Allentown Queen City Municipal Airport (6 nm NE)
KUKT - Quakertown Airport (9 nm SE)
KABE - Lehigh Valley International Airport (11 nm NE)
KCKZ - Pennridge Airport (14 nm SE)
N47 - Pottstown Municipal Airport (15 nm S)
KPTW - Heritage Field Airport (16 nm S)
N10 - Perkiomen Valley Airport (19 nm S)
KRDG - Reading Regional Airport/Carl A Spaatz Field (20 nm W)
 
Loc | Ops | Rwys | IFR | FBO | Links
Com | Nav | Svcs | Stats | Notes
Area around 4PA9 (Macungie Mack Heliport)
 
Road maps at: MapQuest Bing Google
 
Aerial photo
No photo
 
Sectional chart

 
Airport distance calculator
Flying to Macungie Mack Heliport? Find the distance to fly.

From to 4PA9

Sunrise and sunset
Times for 19-Jan-2020
 Local
(UTC-5)
 Zulu
(UTC)
Morning civil twilight06:5311:53
Sunrise07:2312:23
Sunset17:0322:03
Evening civil twilight17:3322:33

Current date and time
Zulu (UTC)  19-Jan-2020 10:40:09
Local (UTC-5)  19-Jan-2020 05:40:09
 
METAR
KXLL 
6nm NE 
191015Z AUTO 21005KT 4SM BR OVC005 01/00 A2972 RMK AO2
KUKT 
9nm SE 
191020Z AUTO 00000KT 10SM CLR 01/01 A2971 RMK A01
KABE 
10nm NE 
191008Z 24006KT 5SM HZ FEW006 01/M02 A2970 RMK AO2 T00111017
KCKZ 
14nm SE 
191015Z AUTO 27006KT 10SM CLR 01/01 A2971 RMK AO2
KPTW 
16nm S 
190954Z AUTO 30003KT 5SM HZ FEW065 M01/ A2973 RMK AO2 SLP067 T1006 $
KRDG 
20nm SW 
191023Z AUTO 26003KT 2SM R36/6000VP6000FT BR OVC003 01/01 A2971 RMK AO2 T00110011 $
TAF
KABE 
10nm NE 
190912Z 1909/2006 26006KT P6SM BKN008 OVC060 TEMPO 1909/1911 SCT008 BKN060 FM191100 27008KT P6SM BKN045 FM191400 28012G24KT P6SM BKN045 FM192300 30010G18KT P6SM BKN045 TEMPO 2000/2004 3SM -SHSN OVC025
KRDG 
20nm SW 
191009Z 1910/2006 27006KT P6SM BKN006 OVC060 TEMPO 1911/1912 SCT006 BKN060 FM191200 28010KT P6SM BKN045 FM191400 29014G26KT P6SM BKN045 FM192300 31010G18KT P6SM SCT045 TEMPO 2003/2006 BKN045
NOTAMs
Click for the latest NOTAMs
NOTAMs are issued by the DoD/FAA and will open in a separate window not controlled by AirNav.

 

 
 

Would you like to see your business listed on this page?

 If your business provides an interesting product or service to pilots, flight crews, aircraft, or users of the Macungie Mack Heliport, you should consider listing it here.  To start the listing process, click on the button below
 
Add a business
 

Other Pages about Macungie Mack Heliport

Update a link
 
Copyright © AirNav, LLC. All rights reserved. Privacy Policy  Contact